createdAt,value
2022-11-29T00:00:48.261Z,5.36
2022-11-29T00:03:19.929Z,5.35
2022-11-29T00:05:55.578Z,5.39
2022-11-29T00:08:31.267Z,5.44
2022-11-29T00:11:09.074Z,5.47
2022-11-29T00:13:40.684Z,5.48
2022-11-29T00:16:12.579Z,5.48
2022-11-29T00:18:44.147Z,5.46
2022-11-29T00:21:15.737Z,5.44
2022-11-29T00:23:47.319Z,5.39
2022-11-29T00:26:18.992Z,5.36
2022-11-29T00:28:50.628Z,5.31
2022-11-29T00:31:30.339Z,5.27
2022-11-29T00:34:04.985Z,5.25
2022-11-29T00:36:36.608Z,5.25
2022-11-29T00:39:11.958Z,5.19
2022-11-29T00:41:46.304Z,5.08
2022-11-29T00:44:20.447Z,5.05
2022-11-29T00:46:52.494Z,5.05
2022-11-29T00:49:24.134Z,5.09
2022-11-29T00:51:55.676Z,5.09
2022-11-29T00:54:27.292Z,5.06
2022-11-29T00:56:58.937Z,5.05
2022-11-29T00:59:30.524Z,5.04
2022-11-29T01:02:02.177Z,5.02
2022-11-29T01:04:34.259Z,5.02
2022-11-29T01:07:06.208Z,5.02
2022-11-29T01:09:38.031Z,5.06
2022-11-29T01:12:12.515Z,5.04
2022-11-29T01:14:47.328Z,5.04
2022-11-29T01:17:18.868Z,5.05
2022-11-29T01:19:51.068Z,5.02
2022-11-29T01:22:25.632Z,5.04
2022-11-29T01:24:57.373Z,5.06
2022-11-29T01:27:29.727Z,5.09
2022-11-29T01:30:05.066Z,5.11
2022-11-29T01:32:37.088Z,5.06
2022-11-29T01:35:09.183Z,5.09
2022-11-29T01:37:40.771Z,5.09
2022-11-29T01:40:13.878Z,5.05
2022-11-29T01:42:45.464Z,5.04
2022-11-29T01:45:26.798Z,5.05
2022-11-29T01:48:05.013Z,5.07
2022-11-29T01:50:38.825Z,5.07
2022-11-29T01:53:15.387Z,5.11
2022-11-29T01:55:54.256Z,5.07
2022-11-29T01:58:30.283Z,5.04
2022-11-29T02:01:04.561Z,4.95
2022-11-29T02:03:36.347Z,4.91
2022-11-29T02:06:08.179Z,4.78
2022-11-29T02:08:42.497Z,4.75
2022-11-29T02:11:34.681Z,4.64
2022-11-29T02:14:18.199Z,4.61
2022-11-29T02:17:28.230Z,4.58
2022-11-29T02:20:18.221Z,4.58
2022-11-29T02:23:10.676Z,4.58
2022-11-29T02:26:03.308Z,4.62
2022-11-29T02:28:48.311Z,4.65
2022-11-29T02:31:38.818Z,4.65
2022-11-29T02:34:16.304Z,4.65
2022-11-29T02:36:58.272Z,4.61
2022-11-29T02:39:51.351Z,4.61
2022-11-29T02:42:55.713Z,4.60
2022-11-29T02:45:38.498Z,4.62
2022-11-29T02:48:38.179Z,4.62
2022-11-29T02:51:39.224Z,4.62
2022-11-29T02:54:25.764Z,4.64
2022-11-29T02:57:21.508Z,4.65
2022-11-29T03:00:08.661Z,4.68
2022-11-29T03:02:53.126Z,4.70
2022-11-29T03:05:33.396Z,4.70
2022-11-29T03:08:30.454Z,4.71
2022-11-29T03:11:12.805Z,4.74
2022-11-29T03:14:13.016Z,4.73
2022-11-29T03:17:22.313Z,4.75
2022-11-29T03:20:05.953Z,4.74
2022-11-29T03:22:55.467Z,4.75
2022-11-29T03:25:43.103Z,4.78
2022-11-29T03:28:21.776Z,4.83
2022-11-29T03:31:18.136Z,4.87
2022-11-29T03:34:04.957Z,4.88
2022-11-29T03:36:56.151Z,4.91
2022-11-29T03:39:45.230Z,4.92
2022-11-29T03:42:58.923Z,4.91
2022-11-29T03:45:58.496Z,4.89
2022-11-29T03:48:36.536Z,4.84
2022-11-29T03:51:16.376Z,4.82
2022-11-29T03:53:54.324Z,4.77
2022-11-29T03:56:36.407Z,4.73
2022-11-29T03:59:23.157Z,4.69
2022-11-29T04:05:44.340Z,4.71
2022-11-29T04:08:40.457Z,4.72
2022-11-29T04:11:55.242Z,4.70
2022-11-29T04:14:38.761Z,4.69
2022-11-29T04:17:44.083Z,4.71
2022-11-29T04:20:27.809Z,4.70
2022-11-29T04:23:26.605Z,4.68
2022-11-29T04:26:22.720Z,4.66
2022-11-29T04:29:48.872Z,4.60
2022-11-29T04:32:29.457Z,4.57
2022-11-29T04:35:22.496Z,4.60
2022-11-29T04:38:08.962Z,4.58
2022-11-29T04:41:02.431Z,4.59
2022-11-29T04:44:07.133Z,4.61
2022-11-29T04:47:15.274Z,4.59
2022-11-29T04:50:18.753Z,4.61
2022-11-29T04:53:25.539Z,4.62
2022-11-29T04:56:14.557Z,4.65
2022-11-29T04:59:02.265Z,4.66
2022-11-29T05:01:58.361Z,4.63
2022-11-29T05:04:33.677Z,4.65
2022-11-29T05:07:33.861Z,4.60
2022-11-29T05:10:20.754Z,4.61
2022-11-29T05:13:19.772Z,4.57
2022-11-29T05:16:13.749Z,4.56
2022-11-29T05:19:11.901Z,4.51
2022-11-29T05:22:20.549Z,4.49
2022-11-29T05:25:00.612Z,4.49
2022-11-29T05:27:48.199Z,4.55
2022-11-29T05:30:22.635Z,4.50
2022-11-29T05:33:20.695Z,4.48
2022-11-29T05:35:54.727Z,4.50
2022-11-29T05:38:34.129Z,4.48
2022-11-29T05:41:40.792Z,4.50
2022-11-29T05:44:56.972Z,4.51
2022-11-29T05:48:07.171Z,4.53
2022-11-29T05:50:52.474Z,4.56
2022-11-29T05:53:51.437Z,4.58
2022-11-29T05:56:40.571Z,4.58
2022-11-29T05:59:27.236Z,4.61
2022-11-29T06:02:13.888Z,4.60
2022-11-29T06:04:57.554Z,4.60
2022-11-29T06:07:44.906Z,4.59
2022-11-29T06:10:19.815Z,4.59
2022-11-29T06:12:57.346Z,4.59
2022-11-29T06:16:02.925Z,4.63
2022-11-29T06:18:55.544Z,4.62
2022-11-29T06:21:41.740Z,4.59
2022-11-29T06:24:50.884Z,4.59
2022-11-29T06:27:59.954Z,4.57
2022-11-29T06:31:02.080Z,4.57
2022-11-29T06:34:03.869Z,4.61
2022-11-29T06:37:02.578Z,4.63
2022-11-29T06:39:35.179Z,4.62
2022-11-29T06:42:09.918Z,4.62
2022-11-29T06:44:42.879Z,4.61
2022-11-29T06:47:33.142Z,4.60
2022-11-29T06:50:49.301Z,4.66
2022-11-29T06:53:41.521Z,4.62
2022-11-29T06:56:52.085Z,4.63
2022-11-29T07:00:00.560Z,4.68
2022-11-29T07:02:52.120Z,4.71
2022-11-29T07:05:34.698Z,4.73
2022-11-29T07:08:23.017Z,4.74
2022-11-29T07:10:55.908Z,4.74
2022-11-29T07:13:31.411Z,4.75
2022-11-29T07:16:30.361Z,4.74
2022-11-29T07:19:26.209Z,4.76
2022-11-29T07:22:30.245Z,4.73
2022-11-29T07:25:17.014Z,4.74
2022-11-29T07:28:22.635Z,4.69
2022-11-29T07:31:33.538Z,4.67
2022-11-29T07:34:15.018Z,4.73
2022-11-29T07:37:17.364Z,4.78
2022-11-29T07:40:18.334Z,4.81
2022-11-29T07:43:23.040Z,4.85
2022-11-29T07:45:57.064Z,4.91
2022-11-29T07:48:31.433Z,4.95
2022-11-29T07:51:03.429Z,4.89
2022-11-29T07:53:42.923Z,4.90
2022-11-29T07:56:16.411Z,4.83
2022-11-29T07:58:48.175Z,4.86
2022-11-29T08:01:19.967Z,4.91
2022-11-29T08:04:20.483Z,4.90
2022-11-29T08:06:58.120Z,4.92
2022-11-29T08:09:29.716Z,4.87
2022-11-29T08:12:01.428Z,4.85
2022-11-29T08:14:34.151Z,4.84
2022-11-29T08:17:06.096Z,4.86
2022-11-29T08:19:37.732Z,4.83
2022-11-29T08:22:09.308Z,4.74
2022-11-29T08:24:43.361Z,4.76
2022-11-29T08:27:18.142Z,4.73
2022-11-29T08:29:49.815Z,4.75
2022-11-29T08:32:21.398Z,4.73
2022-11-29T08:34:53.061Z,4.70
2022-11-29T08:37:24.623Z,4.72
2022-11-29T08:39:59.284Z,4.68
2022-11-29T08:42:30.902Z,4.69
2022-11-29T08:45:02.576Z,4.70
2022-11-29T08:47:42.202Z,4.69
2022-11-29T08:50:16.624Z,4.69
2022-11-29T08:53:10.006Z,4.70
2022-11-29T08:55:46.688Z,4.74
2022-11-29T08:58:18.482Z,4.74
2022-11-29T09:03:59.584Z,4.76
2022-11-29T09:06:40.748Z,4.78
2022-11-29T09:09:23.857Z,4.78
2022-11-29T09:11:58.585Z,4.80
2022-11-29T09:14:30.825Z,4.83
2022-11-29T09:17:07.090Z,4.84
2022-11-29T09:19:38.719Z,4.92
2022-11-29T09:22:10.314Z,5.00
2022-11-29T09:24:46.584Z,5.05
2022-11-29T09:27:21.353Z,5.08
2022-11-29T09:29:52.984Z,5.11
2022-11-29T09:32:26.925Z,5.15
2022-11-29T09:35:02.885Z,5.16
2022-11-29T09:37:37.394Z,5.21
2022-11-29T09:40:18.143Z,5.20
2022-11-29T09:43:21.205Z,5.15
2022-11-29T09:46:24.747Z,5.22
2022-11-29T09:49:27.044Z,5.24
2022-11-29T09:52:21.343Z,5.29
2022-11-29T09:55:12.208Z,5.34
2022-11-29T09:57:44.363Z,5.36
2022-11-29T10:00:19.956Z,5.39
2022-11-29T10:03:02.678Z,5.41
2022-11-29T10:05:51.584Z,5.45
2022-11-29T10:08:35.473Z,5.49
2022-11-29T10:11:18.956Z,5.42
2022-11-29T10:14:12.057Z,5.34
2022-11-29T10:16:58.718Z,5.30
2022-11-29T10:20:04.635Z,5.24
2022-11-29T10:22:40.907Z,5.24
2022-11-29T10:25:24.206Z,5.29
2022-11-29T10:27:55.949Z,5.27
2022-11-29T10:30:29.440Z,5.24
2022-11-29T10:33:02.664Z,5.26
2022-11-29T10:35:34.447Z,5.28
2022-11-29T10:38:29.743Z,5.18
2022-11-29T10:41:22.394Z,5.13
2022-11-29T10:43:58.617Z,5.11
2022-11-29T10:46:37.078Z,5.14
2022-11-29T10:49:28.763Z,5.20
2022-11-29T10:52:00.770Z,5.22
2022-11-29T10:54:42.830Z,5.26
2022-11-29T10:57:20.445Z,5.29
2022-11-29T11:00:06.934Z,5.33
2022-11-29T11:02:42.893Z,5.39
2022-11-29T11:05:18.947Z,5.46
2022-11-29T11:07:59.310Z,5.49
2022-11-29T11:10:31.372Z,5.51
2022-11-29T11:13:20.535Z,5.45
2022-11-29T11:16:24.201Z,5.42
2022-11-29T11:18:55.904Z,5.41
2022-11-29T11:21:29.334Z,5.42
2022-11-29T11:24:03.288Z,5.47
2022-11-29T11:26:44.084Z,5.54
2022-11-29T11:29:22.303Z,5.58
2022-11-29T11:31:59.676Z,5.51
2022-11-29T11:34:38.816Z,5.44
2022-11-29T11:37:20.883Z,5.46
2022-11-29T11:40:00.282Z,5.45
2022-11-29T11:42:38.297Z,5.52
2022-11-29T11:45:15.743Z,5.60
2022-11-29T11:47:56.710Z,5.63
2022-11-29T11:50:39.344Z,5.55
2022-11-29T11:53:36.730Z,5.48
2022-11-29T11:56:13.141Z,5.45
2022-11-29T11:58:52.649Z,5.38
2022-11-29T12:01:33.543Z,5.38
2022-11-29T12:04:22.065Z,5.31
2022-11-29T12:06:58.581Z,5.31
2022-11-29T12:09:48.323Z,5.34
2022-11-29T12:12:32.060Z,5.32
2022-11-29T12:15:29.202Z,5.36
2022-11-29T12:18:17.153Z,5.38
2022-11-29T12:20:57.033Z,5.43
2022-11-29T12:23:40.784Z,5.42
2022-11-29T12:26:54.892Z,5.46
2022-11-29T12:29:22.276Z,5.46
2022-11-29T12:32:31.467Z,5.46
2022-11-29T12:35:37.102Z,5.36
2022-11-29T12:38:48.502Z,5.37
2022-11-29T12:41:36.948Z,5.36
2022-11-29T12:44:22.604Z,5.39
2022-11-29T12:47:35.252Z,5.39
2022-11-29T12:50:30.095Z,5.40
2022-11-29T12:53:01.620Z,5.39
2022-11-29T12:55:53.505Z,5.35
2022-11-29T12:58:41.317Z,5.37
2022-11-29T13:01:20.287Z,5.39
2022-11-29T13:04:13.123Z,5.41
2022-11-29T13:06:56.246Z,5.39
2022-11-29T13:10:05.539Z,5.38
2022-11-29T13:12:58.394Z,5.34
2022-11-29T13:16:01.840Z,5.29
2022-11-29T13:18:54.775Z,5.28
2022-11-29T13:22:04.342Z,5.29
2022-11-29T13:24:44.316Z,5.32
2022-11-29T13:27:23.250Z,5.29
2022-11-29T13:29:56.297Z,5.32
2022-11-29T13:32:40.122Z,5.39
2022-11-29T13:35:14.642Z,5.39
2022-11-29T13:38:03.781Z,5.36
2022-11-29T13:40:50.083Z,5.34
2022-11-29T13:43:42.391Z,5.39
2022-11-29T13:46:17.087Z,5.38
2022-11-29T13:48:54.119Z,5.35
2022-11-29T13:51:38.032Z,5.35
2022-11-29T13:54:30.780Z,5.34
2022-11-29T13:57:11.494Z,5.35
2022-11-29T13:59:49.433Z,5.36
2022-11-29T14:02:39.308Z,5.31
2022-11-29T14:05:44.608Z,5.32
2022-11-29T14:12:04.748Z,5.26
2022-11-29T14:14:51.924Z,5.23
2022-11-29T14:17:34.405Z,5.25
2022-11-29T14:20:28.550Z,5.28
2022-11-29T14:23:19.222Z,5.29
2022-11-29T14:25:56.871Z,5.25
2022-11-29T14:28:36.099Z,5.21
2022-11-29T14:31:11.496Z,5.18
2022-11-29T14:33:58.062Z,5.20
2022-11-29T14:36:52.692Z,5.20
2022-11-29T14:39:29.370Z,5.20
2022-11-29T14:42:14.666Z,5.22
2022-11-29T14:45:01.024Z,5.23
2022-11-29T14:47:48.550Z,5.24
2022-11-29T14:50:39.934Z,5.28
2022-11-29T14:53:35.363Z,5.29
2022-11-29T14:56:28.925Z,5.26
2022-11-29T14:59:41.076Z,5.25
2022-11-29T15:02:29.574Z,5.27
2022-11-29T15:05:18.888Z,5.27
2022-11-29T15:08:14.210Z,5.27
2022-11-29T15:10:59.854Z,5.23
2022-11-29T15:13:34.660Z,5.21
2022-11-29T15:16:14.216Z,5.18
2022-11-29T15:19:04.351Z,5.17
2022-11-29T15:22:15.829Z,5.20
2022-11-29T15:24:51.646Z,5.15
2022-11-29T15:27:24.056Z,5.18
2022-11-29T15:29:56.045Z,5.15
2022-11-29T15:32:31.064Z,5.10
2022-11-29T15:35:08.430Z,5.05
2022-11-29T15:37:45.632Z,5.02
2022-11-29T15:40:23.006Z,5.01
2022-11-29T15:43:36.343Z,5.00
2022-11-29T15:46:19.554Z,5.01
2022-11-29T15:49:03.260Z,5.00
2022-11-29T15:51:38.463Z,5.04
2022-11-29T15:54:44.949Z,4.99
2022-11-29T15:57:20.844Z,4.96
2022-11-29T16:00:12.675Z,4.96
2022-11-29T16:03:01.559Z,4.99
2022-11-29T16:05:37.856Z,4.96
2022-11-29T16:08:19.332Z,4.93
2022-11-29T16:10:54.645Z,4.95
2022-11-29T16:13:37.102Z,4.95
2022-11-29T16:16:22.805Z,4.97
2022-11-29T16:18:54.547Z,4.98
2022-11-29T16:21:29.365Z,4.98
2022-11-29T16:24:11.170Z,4.97
2022-11-29T16:29:49.352Z,5.00
2022-11-29T16:32:31.905Z,5.01
2022-11-29T16:35:21.537Z,4.99
2022-11-29T16:37:54.655Z,4.97
2022-11-29T16:40:30.193Z,5.01
2022-11-29T16:43:04.955Z,5.02
2022-11-29T16:45:39.537Z,5.01
2022-11-29T16:48:28.896Z,5.03
2022-11-29T16:51:09.637Z,5.06
2022-11-29T16:53:43.241Z,5.06
2022-11-29T16:56:17.722Z,5.07
2022-11-29T16:59:17.242Z,5.07
2022-11-29T17:01:47.879Z,5.04
2022-11-29T17:04:24.354Z,5.08
2022-11-29T17:07:00.648Z,5.08
2022-11-29T17:09:34.204Z,5.11
2022-11-29T17:12:08.119Z,5.13
2022-11-29T17:14:42.879Z,5.12
2022-11-29T17:17:15.446Z,5.12
2022-11-29T17:19:53.119Z,5.13
2022-11-29T17:22:24.799Z,5.10
2022-11-29T17:25:00.733Z,5.11
2022-11-29T17:27:32.388Z,5.11
2022-11-29T17:30:06.238Z,5.09
2022-11-29T17:32:38.796Z,5.12
2022-11-29T17:35:10.381Z,5.14
2022-11-29T17:37:41.954Z,5.16
2022-11-29T17:40:15.338Z,5.19
2022-11-29T17:42:48.565Z,5.19
2022-11-29T17:45:20.553Z,5.21
2022-11-29T17:47:53.758Z,5.25
2022-11-29T17:50:26.845Z,5.26
2022-11-29T17:52:58.539Z,5.26
2022-11-29T17:55:34.032Z,5.25
2022-11-29T17:58:08.152Z,5.22
2022-11-29T18:00:39.801Z,5.21
2022-11-29T18:03:11.438Z,5.20
2022-11-29T18:05:44.260Z,5.15
2022-11-29T18:08:15.865Z,5.11
2022-11-29T18:10:47.479Z,5.10
2022-11-29T18:13:19.181Z,5.11
2022-11-29T18:15:51.020Z,5.06
2022-11-29T18:18:22.913Z,5.05
2022-11-29T18:21:02.546Z,5.01
2022-11-29T18:23:37.192Z,4.95
2022-11-29T18:26:12.336Z,4.96
2022-11-29T18:28:44.781Z,4.92
2022-11-29T18:31:28.282Z,4.92
2022-11-29T18:34:02.296Z,4.90
2022-11-29T18:36:39.189Z,4.90
2022-11-29T18:39:15.014Z,4.80
2022-11-29T18:41:51.604Z,4.79
2022-11-29T18:44:29.290Z,4.81
2022-11-29T18:47:01.428Z,4.84
2022-11-29T18:49:33.165Z,4.83
2022-11-29T18:52:30.441Z,4.83
2022-11-29T18:55:02.144Z,4.85
2022-11-29T18:57:33.803Z,4.90
2022-11-29T19:00:06.141Z,4.88
2022-11-29T19:02:40.691Z,4.86
2022-11-29T19:05:14.781Z,4.83
2022-11-29T19:07:46.386Z,4.84
2022-11-29T19:10:18.379Z,4.90
2022-11-29T19:12:49.973Z,4.89
2022-11-29T19:15:22.543Z,4.85
2022-11-29T19:17:54.111Z,4.85
2022-11-29T19:20:28.572Z,4.82
2022-11-29T19:23:00.707Z,4.82
2022-11-29T19:25:34.533Z,4.84
2022-11-29T19:28:12.481Z,4.74
2022-11-29T19:30:54.252Z,4.74
2022-11-29T19:33:26.298Z,4.74
2022-11-29T19:36:14.383Z,4.72
2022-11-29T19:38:53.411Z,4.74
2022-11-29T19:41:28.853Z,4.73
2022-11-29T19:44:03.574Z,4.70
2022-11-29T19:46:43.569Z,4.68
2022-11-29T19:49:15.317Z,4.68
2022-11-29T19:51:47.739Z,4.71
2022-11-29T19:54:19.332Z,4.68
2022-11-29T19:56:50.914Z,4.63
2022-11-29T19:59:26.808Z,4.65
2022-11-29T20:01:58.481Z,4.66
2022-11-29T20:04:30.123Z,4.65
2022-11-29T20:07:03.142Z,4.64
2022-11-29T20:09:34.778Z,4.62
2022-11-29T20:12:06.448Z,4.64
2022-11-29T20:14:41.325Z,4.65
2022-11-29T20:17:17.091Z,4.63
2022-11-29T20:19:51.749Z,4.62
2022-11-29T20:22:23.681Z,4.61
2022-11-29T20:24:55.843Z,4.62
2022-11-29T20:27:27.493Z,4.63
2022-11-29T20:29:59.157Z,4.65
2022-11-29T20:32:35.230Z,4.68
2022-11-29T20:35:09.467Z,4.69
2022-11-29T20:38:16.535Z,4.72
2022-11-29T20:41:08.339Z,4.69
2022-11-29T20:43:55.752Z,4.71
2022-11-29T20:46:33.050Z,4.76
2022-11-29T20:49:06.698Z,4.72
2022-11-29T20:51:56.435Z,4.71
2022-11-29T20:54:29.313Z,4.69
2022-11-29T20:57:00.876Z,4.68
2022-11-29T20:59:32.794Z,4.62
2022-11-29T21:02:04.477Z,4.62
2022-11-29T21:04:36.218Z,4.59
2022-11-29T21:07:07.771Z,4.58
2022-11-29T21:09:39.356Z,4.60
2022-11-29T21:12:11.757Z,4.58
2022-11-29T21:14:47.308Z,4.61
2022-11-29T21:17:20.610Z,4.59
2022-11-29T21:19:54.025Z,4.63
2022-11-29T21:22:52.557Z,4.64
2022-11-29T21:26:21.622Z,4.63
2022-11-29T21:29:05.656Z,4.58
2022-11-29T21:31:37.939Z,4.59
2022-11-29T21:34:09.735Z,4.56
2022-11-29T21:36:41.928Z,4.55
2022-11-29T21:39:18.624Z,4.57
2022-11-29T21:41:55.953Z,4.60
2022-11-29T21:44:27.657Z,4.62
2022-11-29T21:46:59.388Z,4.61
2022-11-29T21:49:31.352Z,4.60
2022-11-29T21:52:03.327Z,4.61
2022-11-29T21:54:34.992Z,4.65
2022-11-29T21:57:06.676Z,4.67
2022-11-29T21:59:38.561Z,4.69
2022-11-29T22:02:10.339Z,4.69
2022-11-29T22:04:42.088Z,4.68
2022-11-29T22:07:14.741Z,4.69
2022-11-29T22:09:46.723Z,4.70
2022-11-29T22:12:35.164Z,4.74
2022-11-29T22:15:11.292Z,4.78
2022-11-29T22:17:44.396Z,4.77
2022-11-29T22:20:17.351Z,4.78
2022-11-29T22:22:49.076Z,4.80
2022-11-29T22:25:20.657Z,4.82
2022-11-29T22:27:54.298Z,4.86
2022-11-29T22:30:26.972Z,4.83
2022-11-29T22:32:59.149Z,4.84
2022-11-29T22:35:32.741Z,4.84
2022-11-29T22:38:04.396Z,4.83
2022-11-29T22:40:38.153Z,4.85
2022-11-29T22:43:09.945Z,4.90
2022-11-29T22:45:43.554Z,4.91
2022-11-29T22:48:15.183Z,4.93
2022-11-29T22:50:47.118Z,4.95
2022-11-29T22:53:22.641Z,4.98
2022-11-29T22:55:59.374Z,4.98
2022-11-29T22:58:31.652Z,4.98
2022-11-29T23:01:10.543Z,4.97
2022-11-29T23:03:45.117Z,5.00
2022-11-29T23:06:19.797Z,5.01
2022-11-29T23:08:53.750Z,5.04
2022-11-29T23:11:28.053Z,5.02
2022-11-29T23:14:01.408Z,5.04
2022-11-29T23:16:35.821Z,5.04
2022-11-29T23:19:08.130Z,5.06
2022-11-29T23:21:41.162Z,5.06
2022-11-29T23:24:15.158Z,5.03
2022-11-29T23:26:48.038Z,5.01
2022-11-29T23:29:20.034Z,4.98
2022-11-29T23:31:52.658Z,4.92
2022-11-29T23:34:26.604Z,4.90
2022-11-29T23:36:58.183Z,4.84
2022-11-29T23:39:29.801Z,4.83
2022-11-29T23:42:01.394Z,4.82
2022-11-29T23:44:33.273Z,4.78
2022-11-29T23:47:05.908Z,4.75
2022-11-29T23:49:39.834Z,4.71
2022-11-29T23:52:18.638Z,4.62
2022-11-29T23:54:51.313Z,4.58
2022-11-29T23:57:22.905Z,4.50
2022-11-29T23:59:54.699Z,4.44
